• Join FlightAware (Why Join?)
  • Login
  • US Flag 
01:10AM EDT


 

Airport Tracker/Info


-or-


 

Live Flight TrackerFlight Track Log ✈ FSR411 ✈ 19-Oct-2013 ✈ KCMI - KDET

Flight Track Log - Related Links

Times and Time Zones

All times are in EDT time to prevent confusion due to time zone crossing. See the FSR411 flight status page for this flight to view local times or setup timezone preferences in your user account.

Time Position Orientation Groundspeed Altitude Reporting Facility
EDT Latitude Longitude Course Direction KTS MPH feet Rate Location/Type
11:24AM 40.0986 -88.2581 75° East 243 280 23,000  Level Chicago Center
11:25AM 40.1222 -88.1700 71° East 277 319 7,100 -6,420 Descending Chicago Center
11:26AM 40.1542 -88.0744 66° East 292 336 9,800 1,380 Climbing Chicago Center
11:27AM 40.1917 -87.9469 69° East 341 392 10,000 240 Climbing Chicago Center
11:28AM 40.2294 -87.8228 68° East 366 421 10,300 2,520 Climbing Chicago Center
11:29AM 40.3924 -87.1380 75° East  Level FlightAware Approximate
11:30AM 40.3194 -87.5217 69° East 418 481 17,800  Level Chicago Center
11:31AM 40.3606 -87.3836 69° East 440 506 21,300 2,520 Climbing Chicago Center
11:32AM 40.4069 -87.2267 69° East 459 528 23,000 780 Climbing Chicago Center
11:33AM 40.4542 -87.0611 69° East 480 552 23,000  Level Chicago Center
11:34AM 40.5128 -86.8586 69° East 494 568 23,000  Level Chicago Center
11:35AM 40.5622 -86.6897 69° East 495 570 23,000  Level Chicago Center
11:36AM 40.6114 -86.5192 69° East 498 573 23,000  Level Chicago Center
11:37AM 40.6603 -86.3464 69° East 502 578 23,000  Level Chicago Center
11:38AM 40.7075 -86.1800 69° East 506 582 23,000  Level Chicago Center
11:39AM 40.7556 -86.0069 70° East 506 582 23,000  Level Chicago Center
11:40AM 40.8125 -85.8017 70° East 500 575 23,000  Level Chicago Center
11:41AM 40.8578 -85.6356 70° East 490 564 23,000  Level Chicago Center
11:42AM 40.9036 -85.4678 70° East 488 562 23,000 -540 Level Chicago Center
11:43AM 40.9539 -85.3053 68° East 484 557 21,900 -1,680 Descending Chicago Center
11:44AM 41.0069 -85.1286 68° East 485 558 19,600 -2,040 Descending Chicago Center
11:45AM 41.0600 -84.9564 68° East 457 526 17,700 -1,260 Descending Chicago Center
11:46AM 41.1061 -84.8056 68° East 449 517 17,000 -360 Descending Chicago Center
11:47AM 41.1506 -84.6558 68° East 441 507 17,000  Level Chicago Center
11:48AM 41.1958 -84.5075 68° East 438 504 17,000  Level Chicago Center
11:50AM 41.2400 -84.3581 69° East 437 503 17,000  Level Chicago Center
11:51AM 41.2844 -84.2100 68° East 435 501 17,100  Climbing Chicago Center
11:52AM 41.3286 -84.0611 68° East 436 502 17,000 -780 Descending Chicago Center
11:53AM 41.3803 -83.8831 69° East 432 497 15,600 -1,500 Descending Chicago Center
11:53AM 41.3986 -83.8172 70° East 426 490 14,700 -1,860 Descending Cleveland Center
11:54AM 41.4361 -83.6886 69° East 399 459 13,100 -1,860 Descending Cleveland Center
11:54AM 41.4419 -83.6658 71° East 406 467 12,800 -1,800 Descending Cleveland Center
11:55AM 41.4828 -83.5561 64° Northeast 396 456 11,300 -1,560 Descending Cleveland Center
11:55AM 41.4842 -83.5467 79° East 399 459 11,200 -1,320 Descending Cleveland Center
11:56AM 41.5350 -83.4267 60° Northeast 381 438 10,000 -1,200 Descending Cleveland Center
11:56AM 41.5464 -83.3986 62° Northeast 385 443 10,000  Level Cleveland Center
11:57AM 41.5844 -83.3025 62° Northeast 379 436 10,000  Level Cleveland Center
11:57AM 41.5950 -83.2756 62° Northeast 379 436 10,000  Level Cleveland Center
11:58AM 41.6631 -83.2072 37° Northeast 399 459 10,000  Level Cleveland Center
11:58AM 41.6825 -83.1892 35° Northeast 391 450 10,000  Level Cleveland Center
11:59AM 41.7372 -83.1447 31° Northeast 391 450 10,000  Level Cleveland Center
11:59AM 41.7733 -83.1114 35° Northeast 392 451 10,000  Level Cleveland Center
12:00PM 41.8475 -83.0450 34° Northeast 392 451 10,000  Level Cleveland Center
12:00PM 41.8622 -83.0303 37° Northeast 391 450 10,000 -600 Level Cleveland Center
12:01PM 41.9172 -82.9786 35° Northeast 318 366 9,500 -900 Descending Cleveland Center
12:01PM 41.9358 -82.9611 35° Northeast 331 381 9,100 -1,500 Descending Cleveland Center
12:02PM 41.9914 -82.9128 33° Northeast 318 366 8,000 -1,320 Descending Cleveland Center
12:02PM 42.0069 -82.8961 39° Northeast 317 365 7,800 -1,440 Descending Cleveland Center
12:03PM 42.0564 -82.8542 32° Northeast 295 339 6,700 -2,280 Descending Cleveland Center
12:03PM 42.0883 -82.8222 37° Northeast 303 349 5,500 -1,800 Descending Cleveland Center
12:04PM 42.1214 -82.7953 31° Northeast 288 331 4,900 -1,560 Descending Cleveland Center
12:04PM 42.1561 -82.7853 12° North 291 335 3,900 -1,740 Descending Cleveland Center
12:05PM 42.1942 -82.8019 342° North 261 300 3,200 -900 Descending Cleveland Center
12:05PM 42.2217 -82.8214 332° Northwest 261 300 3,000 -240 Descending Cleveland Center
12:06PM 42.2497 -82.8461 327° Northwest 215 247 3,000  Level Cleveland Center
12:06PM 42.2703 -82.8667 324° Northwest 223 257 3,000  Level Cleveland Center
12:07PM 42.2964 -82.8944 322° Northwest 169 194 3,000  Level Cleveland Center
12:08PM 42.3056 -82.9058 317° Northwest 177 204 3,000 -420 Level Cleveland Center
12:08PM 42.3236 -82.9236 324° Northwest 115 132 2,600 -840 Descending Cleveland Center
12:09PM 42.3322 -82.9308 328° Northwest 130 150 2,200 -420 Descending Cleveland Center
12:09PM 42.3508 -82.9497 323° Northwest 120 138 2,200 -300 Level Cleveland Center
12:10PM 42.3644 -82.9644 321° Northwest 124 143 1,900 -780 Descending Cleveland Center
12:10PM 42.3783 -82.9761 328° Northwest 128 147 1,500 -900 Descending Cleveland Center
12:11PM 42.3922 -82.9931 318° Northwest 125 144 1,000 -840 Descending Cleveland Center